This is the latest recevied weather packets stored in our database for station/object NY3Q. If no packets are shown the sender has not sent any weather packets the latest 10 day(s).
| Time | Temp. | Humidity | Pressure | Rain* | Wind** | Luminosity | Snow |
|---|---|---|---|---|---|---|---|
| 1777386863 | 26.11° C | 72% | 1021.1 hPa | 0 mm | - | 530 W/m² | - |
| 1777386561 | 25° C | 75% | 1021.4 hPa | 0 mm | - | 554 W/m² | - |
| 1777386257 | 25° C | 76% | 1021.6 hPa | 0 mm | - | 510 W/m² | - |
| 1777385955 | 25° C | 76% | 1021.3 hPa | 0 mm | - | 215 W/m² | - |
| 1777385651 | 24.44° C | 76% | 1021.2 hPa | 0 mm | - | 134 W/m² | - |
| 1777385349 | 25.56° C | 73% | 1021.4 hPa | 0 mm | - | 156 W/m² | - |
| 1777385045 | 25.56° C | 75% | 1021.2 hPa | 0 mm | - | 421 W/m² | - |
| 1777384742 | 25° C | 78% | 1021.2 hPa | 0 mm | - | 265 W/m² | - |
| 1777384441 | 24.44° C | 77% | 1021.1 hPa | 0 mm | - | 227 W/m² | - |
| 1777384137 | 25° C | 75% | 1021 hPa | 0 mm | - | 183 W/m² | - |
| 1777383834 | 25.56° C | 76% | 1021.1 hPa | 0 mm | - | 298 W/m² | - |
| 1777383530 | 25° C | 78% | 1021 hPa | 0 mm | - | 388 W/m² | - |
| 1777383227 | 25° C | 79% | 1021.1 hPa | 0 mm | - | 389 W/m² | - |
| 1777382924 | 24.44° C | 82% | 1021 hPa | 0 mm | - | 420 W/m² | - |
| 1777382619 | 23.89° C | 82% | 1021.1 hPa | 0 mm | - | 299 W/m² | - |
| 1777382315 | 23.89° C | 83% | 1021.2 hPa | 0 mm | - | 114 W/m² | - |
| 1777382012 | 23.89° C | 83% | 1020.9 hPa | 0 mm | - | 231 W/m² | - |
| 1777381712 | 23.89° C | 85% | 1020.9 hPa | 0 mm | - | 172 W/m² | - |
| 1777381407 | 23.89° C | 86% | 1021.3 hPa | 0 mm | - | 160 W/m² | - |
| 1777381104 | 23.33° C | 87% | 1020.8 hPa | 0 mm | - | 71 W/m² | - |
| 1777380801 | 23.33° C | 88% | 1021 hPa | 0 mm | - | 134 W/m² | - |
| 1777380498 | 23.33° C | 90% | 1020.9 hPa | 0 mm | - | 70 W/m² | - |
| 1777380195 | 23.33° C | 92% | 1020.7 hPa | 0 mm | - | 82 W/m² | - |
| 1777379891 | 22.78° C | 94% | 1020.4 hPa | 0 mm | - | 87 W/m² | - |
| 1777379586 | 21.67° C | 94% | 1020.6 hPa | 0 mm | - | 90 W/m² | - |
* Rain latest hour (hover to see other rain measurements)
** Current wind speed in m/s (hover to see current wind gust speed)